MSC Levina — 3FJR8 — position and weather

sailwx.info

Track history (hours):
 
Tides and Currents Weather Stations Pressure Air Temp Water Temp Dewpoint Dewpoint Depression Visibility Wind Speed Wind Dir Waves Ship Positions

MSC Levina

Last reported at 2014-Nov-17 22:33 UTC. Time now 2014-Nov-24 01:21 UTC.
Position S 34°04' E 018°13'.

Length 227.6 m; beam 32.2 m; draft 12.1 m.

Type: Ship (hazmat cat A). MMSI: 355609000.

Date/timePositionNaut miles runAvg speedWind from/ knotsBaromVisibWave heightAir tempDewpointWater temp
2014-Nov-17 22:33S 34°04' E 018°13'3517.3
2014-Nov-17 20:31S 34°32' E 018°38'44112.6
2014-Nov-16 09:23S 33°27' E 027°25'2511.2
2014-Nov-16 07:07S 33°12' E 027°50'2110.9
2014-Nov-16 05:14S 32°60' E 028°09'223 9.0
2014-Nov-15 04:33S 30°09' E 030°57'1414.2
2014-Nov-15 03:33S 29°56' E 031°05'5 4.3
2014-Nov-15 02:28S 29°53' E 031°02'0 0.1
2014-Nov-15 01:28S 29°53' E 031°01'0 0.0
2014-Nov-15 00:28S 29°53' E 031°01'0 0.0
2014-Nov-14 23:22S 29°53' E 031°01'0 0.0
2014-Nov-14 22:28S 29°53' E 031°01'0 0.0
2014-Nov-14 21:28S 29°53' E 031°01'0 0.0
2014-Nov-14 20:28S 29°53' E 031°01'0 0.0
2014-Nov-14 19:28S 29°53' E 031°01'0 0.0
2014-Nov-14 18:28S 29°53' E 031°01'0 0.0
2014-Nov-14 17:28S 29°53' E 031°01'0 0.0
2014-Nov-14 16:28S 29°53' E 031°01'0 0.0
2014-Nov-14 15:22S 29°53' E 031°01'0 0.0
2014-Nov-14 14:28S 29°53' E 031°01'0 0.0
2014-Nov-14 12:28S 29°53' E 031°01'0 0.0
2014-Nov-14 11:28S 29°53' E 031°01'0 0.0
2014-Nov-14 10:28S 29°53' E 031°01'0 0.0
2014-Nov-14 09:28S 29°53' E 031°01'0 0.0
2014-Nov-14 08:28S 29°53' E 031°01'0 0.0
2014-Nov-14 07:28S 29°53' E 031°01'0 0.0
2014-Nov-14 06:22S 29°53' E 031°01'0 0.0
2014-Nov-14 05:28S 29°53' E 031°01'0 0.0
2014-Nov-14 04:28S 29°53' E 031°01'0 0.0
2014-Nov-14 03:28S 29°53' E 031°01'0 0.0
2014-Nov-14 02:28S 29°53' E 031°01'0 0.0
2014-Nov-14 01:22S 29°53' E 031°01'0 0.0
2014-Nov-14 00:28S 29°53' E 031°01'0 0.0
2014-Nov-13 23:28S 29°53' E 031°01'0 0.0
2014-Nov-13 22:28S 29°53' E 031°01'0 0.0
2014-Nov-13 21:10S 29°53' E 031°01'0 0.0
2014-Nov-13 20:22S 29°53' E 031°01'0 0.0
2014-Nov-13 19:28S 29°53' E 031°01'0 0.0
2014-Nov-13 18:28S 29°53' E 031°01'0 0.0
2014-Nov-13 17:28S 29°53' E 031°01'0 0.0
2014-Nov-13 16:22S 29°53' E 031°01'0 0.0
2014-Nov-13 15:28S 29°53' E 031°01'0 0.0
2014-Nov-13 14:28S 29°53' E 031°01'0 0.0
2014-Nov-13 13:28S 29°53' E 031°01'0 0.0
2014-Nov-13 12:16S 29°53' E 031°01'0 0.0
2014-Nov-13 11:28S 29°53' E 031°01'0 0.0
2014-Nov-13 10:30S 29°53' E 031°01'5 5.6
2014-Nov-13 09:33S 29°50' E 031°07'5 5.2
2014-Nov-13 08:33S 29°51' E 031°13'1 0.6
2014-Nov-13 07:33S 29°52' E 031°12'1 1.1
2014-Nov-13 06:33S 29°52' E 031°13'3 3.1
2014-Nov-13 05:33S 29°53' E 031°17'0 0.5
2014-Nov-13 04:33S 29°53' E 031°17'1 0.6
2014-Nov-13 03:33S 29°53' E 031°18'1 0.8
2014-Nov-13 02:33S 29°53' E 031°19'1 0.5
2014-Nov-13 01:33S 29°53' E 031°19'6 5.9
2014-Nov-13 00:33S 29°57' E 031°14'8 8.2
2014-Nov-12 23:33S 30°02' E 031°06'3 3.2
2014-Nov-12 22:33S 30°04' E 031°03'1 0.9
2014-Nov-12 21:33S 30°03' E 031°04'2 1.8
2014-Nov-12 20:33S 30°02' E 031°05'2 2.1
2014-Nov-12 19:33S 30°00' E 031°07'2 2.1
2014-Nov-12 18:33S 29°59' E 031°09'2 2.1
2014-Nov-12 17:33S 29°58' E 031°11'2 2.2
2014-Nov-12 16:33S 29°56' E 031°13'2 2.4
2014-Nov-12 15:33S 29°55' E 031°15'2 2.1
2014-Nov-12 14:33S 29°53' E 031°17'2 1.9
2014-Nov-12 13:33S 29°52' E 031°19'2 2.1
2014-Nov-12 12:33S 29°53' E 031°16'6 6.5
2014-Nov-12 11:33S 29°55' E 031°10'4 3.6
2014-Nov-12 10:33S 29°57' E 031°06'7 7.2
2014-Nov-12 09:33S 30°04' E 031°02'8 7.5
2014-Nov-12 08:33S 30°10' E 030°58'8 7.7
2014-Nov-12 07:33S 30°17' E 030°53'11 7.4
2014-Nov-12 06:06S 30°26' E 030°47'5 6.8
2014-Nov-12 05:24S 30°30' E 030°44'7 6.1
2014-Nov-12 04:16S 30°36' E 030°40'10 5.6
2014-Nov-12 02:27S 30°45' E 030°34'7 5.5
2014-Nov-12 01:08S 30°51' E 030°30'185 8.5
2014-Nov-11 03:17S 33°09' E 028°04'1614.7
2014-Nov-11 02:13S 33°19' E 027°50'2815.2
2014-Nov-11 00:24S 33°32' E 027°21'  
2014-Nov-08 09:11S 33°48' E 025°41'0 0.0
2014-Nov-08 08:06S 33°48' E 025°41'0 0.0
2014-Nov-08 05:21S 33°48' E 025°41'  
Track history (hours):
 
Tides and Currents Weather Stations Pressure Air Temp Water Temp Dewpoint Dewpoint Depression Visibility Wind Speed Wind Dir Waves Ship Positions

MSC Levina

Last reported at 2014-Nov-17 22:33 UTC. Time now 2014-Nov-24 01:21 UTC.
Position S 34°04' E 018°13'.

Length 227.6 m; beam 32.2 m; draft 12.1 m.

Type: Ship (hazmat cat A). MMSI: 355609000.

Date/timePositionNaut miles runAvg speedWind from/ knotsBaromVisibWave heightAir tempDewpointWater temp
2014-Nov-17 22:33S 34°04' E 018°13'3517.3
2014-Nov-17 20:31S 34°32' E 018°38'44112.6
2014-Nov-16 09:23S 33°27' E 027°25'2511.2
2014-Nov-16 07:07S 33°12' E 027°50'2110.9
2014-Nov-16 05:14S 32°60' E 028°09'223 9.0
2014-Nov-15 04:33S 30°09' E 030°57'1414.2
2014-Nov-15 03:33S 29°56' E 031°05'5 4.3
2014-Nov-15 02:28S 29°53' E 031°02'0 0.1
2014-Nov-15 01:28S 29°53' E 031°01'0 0.0
2014-Nov-15 00:28S 29°53' E 031°01'0 0.0
2014-Nov-14 23:22S 29°53' E 031°01'0 0.0
2014-Nov-14 22:28S 29°53' E 031°01'0 0.0
2014-Nov-14 21:28S 29°53' E 031°01'0 0.0
2014-Nov-14 20:28S 29°53' E 031°01'0 0.0
2014-Nov-14 19:28S 29°53' E 031°01'0 0.0
2014-Nov-14 18:28S 29°53' E 031°01'0 0.0
2014-Nov-14 17:28S 29°53' E 031°01'0 0.0
2014-Nov-14 16:28S 29°53' E 031°01'0 0.0
2014-Nov-14 15:22S 29°53' E 031°01'0 0.0
2014-Nov-14 14:28S 29°53' E 031°01'0 0.0
2014-Nov-14 12:28S 29°53' E 031°01'0 0.0
2014-Nov-14 11:28S 29°53' E 031°01'0 0.0
2014-Nov-14 10:28S 29°53' E 031°01'0 0.0
2014-Nov-14 09:28S 29°53' E 031°01'0 0.0
2014-Nov-14 08:28S 29°53' E 031°01'0 0.0
2014-Nov-14 07:28S 29°53' E 031°01'0 0.0
2014-Nov-14 06:22S 29°53' E 031°01'0 0.0
2014-Nov-14 05:28S 29°53' E 031°01'0 0.0
2014-Nov-14 04:28S 29°53' E 031°01'0 0.0
2014-Nov-14 03:28S 29°53' E 031°01'0 0.0
2014-Nov-14 02:28S 29°53' E 031°01'0 0.0
2014-Nov-14 01:22S 29°53' E 031°01'0 0.0
2014-Nov-14 00:28S 29°53' E 031°01'0 0.0
2014-Nov-13 23:28S 29°53' E 031°01'0 0.0
2014-Nov-13 22:28S 29°53' E 031°01'0 0.0
2014-Nov-13 21:10S 29°53' E 031°01'0 0.0
2014-Nov-13 20:22S 29°53' E 031°01'0 0.0
2014-Nov-13 19:28S 29°53' E 031°01'0 0.0
2014-Nov-13 18:28S 29°53' E 031°01'0 0.0
2014-Nov-13 17:28S 29°53' E 031°01'0 0.0
2014-Nov-13 16:22S 29°53' E 031°01'0 0.0
2014-Nov-13 15:28S 29°53' E 031°01'0 0.0
2014-Nov-13 14:28S 29°53' E 031°01'0 0.0
2014-Nov-13 13:28S 29°53' E 031°01'0 0.0
2014-Nov-13 12:16S 29°53' E 031°01'0 0.0
2014-Nov-13 11:28S 29°53' E 031°01'0 0.0
2014-Nov-13 10:30S 29°53' E 031°01'5 5.6
2014-Nov-13 09:33S 29°50' E 031°07'5 5.2
2014-Nov-13 08:33S 29°51' E 031°13'1 0.6
2014-Nov-13 07:33S 29°52' E 031°12'1 1.1
2014-Nov-13 06:33S 29°52' E 031°13'3 3.1
2014-Nov-13 05:33S 29°53' E 031°17'0 0.5
2014-Nov-13 04:33S 29°53' E 031°17'1 0.6
2014-Nov-13 03:33S 29°53' E 031°18'1 0.8
2014-Nov-13 02:33S 29°53' E 031°19'1 0.5
2014-Nov-13 01:33S 29°53' E 031°19'6 5.9
2014-Nov-13 00:33S 29°57' E 031°14'8 8.2
2014-Nov-12 23:33S 30°02' E 031°06'3 3.2
2014-Nov-12 22:33S 30°04' E 031°03'1 0.9
2014-Nov-12 21:33S 30°03' E 031°04'2 1.8
2014-Nov-12 20:33S 30°02' E 031°05'2 2.1
2014-Nov-12 19:33S 30°00' E 031°07'2 2.1
2014-Nov-12 18:33S 29°59' E 031°09'2 2.1
2014-Nov-12 17:33S 29°58' E 031°11'2 2.2
2014-Nov-12 16:33S 29°56' E 031°13'2 2.4
2014-Nov-12 15:33S 29°55' E 031°15'2 2.1
2014-Nov-12 14:33S 29°53' E 031°17'2 1.9
2014-Nov-12 13:33S 29°52' E 031°19'2 2.1
2014-Nov-12 12:33S 29°53' E 031°16'6 6.5
2014-Nov-12 11:33S 29°55' E 031°10'4 3.6
2014-Nov-12 10:33S 29°57' E 031°06'7 7.2
2014-Nov-12 09:33S 30°04' E 031°02'8 7.5
2014-Nov-12 08:33S 30°10' E 030°58'8 7.7
2014-Nov-12 07:33S 30°17' E 030°53'11 7.4
2014-Nov-12 06:06S 30°26' E 030°47'5 6.8
2014-Nov-12 05:24S 30°30' E 030°44'7 6.1
2014-Nov-12 04:16S 30°36' E 030°40'10 5.6
2014-Nov-12 02:27S 30°45' E 030°34'7 5.5
2014-Nov-12 01:08S 30°51' E 030°30'185 8.5
2014-Nov-11 03:17S 33°09' E 028°04'1614.7
2014-Nov-11 02:13S 33°19' E 027°50'2815.2
2014-Nov-11 00:24S 33°32' E 027°21'  
2014-Nov-08 09:11S 33°48' E 025°41'0 0.0
2014-Nov-08 08:06S 33°48' E 025°41'0 0.0
2014-Nov-08 05:21S 33°48' E 025°41'  

Dump ship's entire track history